sensor_id;sensor_type;location;lat;lon;timestamp;P1;durP1;ratioP1;P2;durP2;ratioP2
17365;SDS011;8800;50.118;9.900;2024-01-15T00:02:22;44.13;;;13.05;;
17365;SDS011;8800;50.118;9.900;2024-01-15T00:04:49;47.80;;;14.75;;
17365;SDS011;8800;50.118;9.900;2024-01-15T00:07:16;46.80;;;14.32;;
17365;SDS011;8800;50.118;9.900;2024-01-15T00:09:43;48.95;;;14.13;;
17365;SDS011;8800;50.118;9.900;2024-01-15T00:12:09;38.40;;;12.43;;
17365;SDS011;8800;50.118;9.900;2024-01-15T00:14:36;35.95;;;11.90;;
17365;SDS011;8800;50.118;9.900;2024-01-15T00:17:02;39.83;;;12.52;;
17365;SDS011;8800;50.118;9.900;2024-01-15T00:19:29;38.47;;;12.50;;
17365;SDS011;8800;50.118;9.900;2024-01-15T00:21:57;40.53;;;12.52;;
17365;SDS011;8800;50.118;9.900;2024-01-15T00:24:25;38.70;;;11.85;;
17365;SDS011;8800;50.118;9.900;2024-01-15T00:26:51;33.75;;;10.70;;
17365;SDS011;8800;50.118;9.900;2024-01-15T00:29:18;36.65;;;10.88;;
17365;SDS011;8800;50.118;9.900;2024-01-15T00:31:45;31.02;;;10.07;;
17365;SDS011;8800;50.118;9.900;2024-01-15T00:34:11;31.50;;;10.80;;
17365;SDS011;8800;50.118;9.900;2024-01-15T00:36:38;38.53;;;11.65;;
17365;SDS011;8800;50.118;9.900;2024-01-15T00:39:05;29.42;;;10.05;;
17365;SDS011;8800;50.118;9.900;2024-01-15T00:41:32;29.55;;;9.70;;
17365;SDS011;8800;50.118;9.900;2024-01-15T00:43:59;34.63;;;11.48;;
17365;SDS011;8800;50.118;9.900;2024-01-15T00:46:25;34.17;;;10.82;;
17365;SDS011;8800;50.118;9.900;2024-01-15T00:48:55;39.40;;;12.35;;
17365;SDS011;8800;50.118;9.900;2024-01-15T00:51:21;42.70;;;11.60;;
17365;SDS011;8800;50.118;9.900;2024-01-15T00:53:48;33.63;;;10.98;;
17365;SDS011;8800;50.118;9.900;2024-01-15T00:56:14;36.83;;;11.40;;
17365;SDS011;8800;50.118;9.900;2024-01-15T00:58:42;39.38;;;12.40;;
17365;SDS011;8800;50.118;9.900;2024-01-15T01:01:09;36.80;;;12.18;;
17365;SDS011;8800;50.118;9.900;2024-01-15T01:03:35;32.70;;;10.52;;
17365;SDS011;8800;50.118;9.900;2024-01-15T01:06:03;39.08;;;11.48;;
17365;SDS011;8800;50.118;9.900;2024-01-15T01:08:29;36.70;;;11.68;;
17365;SDS011;8800;50.118;9.900;2024-01-15T01:10:55;38.90;;;13.02;;
17365;SDS011;8800;50.118;9.900;2024-01-15T01:13:23;40.88;;;12.73;;
17365;SDS011;8800;50.118;9.900;2024-01-15T01:15:51;39.38;;;12.07;;
17365;SDS011;8800;50.118;9.900;2024-01-15T01:18:17;39.95;;;12.80;;
17365;SDS011;8800;50.118;9.900;2024-01-15T01:20:44;34.05;;;10.82;;
17365;SDS011;8800;50.118;9.900;2024-01-15T01:23:10;41.17;;;12.13;;
17365;SDS011;8800;50.118;9.900;2024-01-15T01:25:37;40.85;;;11.23;;
17365;SDS011;8800;50.118;9.900;2024-01-15T01:28:03;38.72;;;11.82;;
17365;SDS011;8800;50.118;9.900;2024-01-15T01:30:30;31.52;;;10.77;;
17365;SDS011;8800;50.118;9.900;2024-01-15T01:32:58;35.53;;;12.25;;
17365;SDS011;8800;50.118;9.900;2024-01-15T01:35:24;36.13;;;12.07;;
17365;SDS011;8800;50.118;9.900;2024-01-15T01:37:51;33.42;;;11.15;;
17365;SDS011;8800;50.118;9.900;2024-01-15T01:40:17;39.75;;;12.32;;
17365;SDS011;8800;50.118;9.900;2024-01-15T01:42:44;39.58;;;11.38;;
17365;SDS011;8800;50.118;9.900;2024-01-15T01:45:10;40.45;;;12.18;;
17365;SDS011;8800;50.118;9.900;2024-01-15T01:47:37;35.42;;;11.25;;
17365;SDS011;8800;50.118;9.900;2024-01-15T01:50:05;35.88;;;11.75;;
17365;SDS011;8800;50.118;9.900;2024-01-15T01:52:32;31.98;;;10.48;;
17365;SDS011;8800;50.118;9.900;2024-01-15T01:55:00;33.08;;;10.88;;
17365;SDS011;8800;50.118;9.900;2024-01-15T01:57:28;27.08;;;9.50;;
17365;SDS011;8800;50.118;9.900;2024-01-15T01:59:55;32.85;;;10.98;;
17365;SDS011;8800;50.118;9.900;2024-01-15T02:02:22;30.77;;;9.82;;
17365;SDS011;8800;50.118;9.900;2024-01-15T02:04:50;29.90;;;10.73;;
17365;SDS011;8800;50.118;9.900;2024-01-15T02:07:17;30.60;;;9.90;;
17365;SDS011;8800;50.118;9.900;2024-01-15T02:09:44;35.42;;;10.20;;
17365;SDS011;8800;50.118;9.900;2024-01-15T02:12:11;34.17;;;11.13;;
17365;SDS011;8800;50.118;9.900;2024-01-15T02:14:37;26.40;;;9.20;;
17365;SDS011;8800;50.118;9.900;2024-01-15T02:17:05;28.20;;;10.50;;
17365;SDS011;8800;50.118;9.900;2024-01-15T02:19:32;33.80;;;10.88;;
17365;SDS011;8800;50.118;9.900;2024-01-15T02:21:58;29.35;;;10.02;;
17365;SDS011;8800;50.118;9.900;2024-01-15T02:24:26;34.25;;;10.82;;
17365;SDS011;8800;50.118;9.900;2024-01-15T02:26:53;31.17;;;9.63;;
17365;SDS011;8800;50.118;9.900;2024-01-15T02:29:19;25.67;;;9.02;;
17365;SDS011;8800;50.118;9.900;2024-01-15T02:31:46;28.20;;;10.02;;
17365;SDS011;8800;50.118;9.900;2024-01-15T02:34:12;30.83;;;10.40;;
17365;SDS011;8800;50.118;9.900;2024-01-15T02:36:39;33.47;;;10.85;;
17365;SDS011;8800;50.118;9.900;2024-01-15T02:39:05;29.88;;;10.00;;
17365;SDS011;8800;50.118;9.900;2024-01-15T02:41:33;35.95;;;10.60;;
17365;SDS011;8800;50.118;9.900;2024-01-15T02:44:00;28.63;;;10.38;;
17365;SDS011;8800;50.118;9.900;2024-01-15T02:46:26;29.30;;;9.63;;
17365;SDS011;8800;50.118;9.900;2024-01-15T02:48:53;28.73;;;10.23;;
17365;SDS011;8800;50.118;9.900;2024-01-15T02:51:19;28.27;;;8.75;;
17365;SDS011;8800;50.118;9.900;2024-01-15T02:53:46;30.98;;;9.75;;
17365;SDS011;8800;50.118;9.900;2024-01-15T02:56:12;29.77;;;9.80;;
17365;SDS011;8800;50.118;9.900;2024-01-15T02:58:40;28.85;;;8.68;;
17365;SDS011;8800;50.118;9.900;2024-01-15T03:01:08;31.10;;;9.77;;
17365;SDS011;8800;50.118;9.900;2024-01-15T03:03:35;37.63;;;11.05;;
17365;SDS011;8800;50.118;9.900;2024-01-15T03:06:01;29.35;;;10.10;;
17365;SDS011;8800;50.118;9.900;2024-01-15T03:08:28;34.33;;;10.90;;
17365;SDS011;8800;50.118;9.900;2024-01-15T03:10:55;30.30;;;10.23;;
17365;SDS011;8800;50.118;9.900;2024-01-15T03:13:21;30.02;;;9.20;;
17365;SDS011;8800;50.118;9.900;2024-01-15T03:15:49;28.02;;;10.80;;
17365;SDS011;8800;50.118;9.900;2024-01-15T03:18:16;29.42;;;10.85;;
17365;SDS011;8800;50.118;9.900;2024-01-15T03:20:42;32.25;;;10.88;;
17365;SDS011;8800;50.118;9.900;2024-01-15T03:23:08;33.00;;;10.73;;
17365;SDS011;8800;50.118;9.900;2024-01-15T03:25:35;37.63;;;11.30;;
17365;SDS011;8800;50.118;9.900;2024-01-15T03:28:01;28.33;;;9.65;;
17365;SDS011;8800;50.118;9.900;2024-01-15T03:30:28;35.55;;;10.25;;
17365;SDS011;8800;50.118;9.900;2024-01-15T03:32:56;32.92;;;10.80;;
17365;SDS011;8800;50.118;9.900;2024-01-15T03:35:22;32.40;;;10.15;;
17365;SDS011;8800;50.118;9.900;2024-01-15T03:37:48;34.28;;;10.82;;
17365;SDS011;8800;50.118;9.900;2024-01-15T03:40:15;37.22;;;11.25;;
17365;SDS011;8800;50.118;9.900;2024-01-15T03:42:42;33.35;;;9.85;;
17365;SDS011;8800;50.118;9.900;2024-01-15T03:45:08;33.55;;;10.93;;
17365;SDS011;8800;50.118;9.900;2024-01-15T03:47:35;30.55;;;9.85;;
17365;SDS011;8800;50.118;9.900;2024-01-15T03:50:03;37.08;;;10.77;;
17365;SDS011;8800;50.118;9.900;2024-01-15T03:52:29;35.92;;;10.77;;
17365;SDS011;8800;50.118;9.900;2024-01-15T03:54:56;33.85;;;10.90;;
17365;SDS011;8800;50.118;9.900;2024-01-15T03:57:22;25.50;;;8.30;;
17365;SDS011;8800;50.118;9.900;2024-01-15T03:59:49;32.47;;;10.05;;
17365;SDS011;8800;50.118;9.900;2024-01-15T04:02:15;32.05;;;11.57;;
17365;SDS011;8800;50.118;9.900;2024-01-15T04:04:42;31.10;;;10.85;;
17365;SDS011;8800;50.118;9.900;2024-01-15T04:07:10;30.67;;;10.07;;
17365;SDS011;8800;50.118;9.900;2024-01-15T04:09:37;31.40;;;10.48;;
17365;SDS011;8800;50.118;9.900;2024-01-15T04:12:03;29.73;;;9.13;;
17365;SDS011;8800;50.118;9.900;2024-01-15T04:14:30;28.60;;;9.77;;
17365;SDS011;8800;50.118;9.900;2024-01-15T04:16:57;25.90;;;8.80;;
17365;SDS011;8800;50.118;9.900;2024-01-15T04:19:23;28.90;;;9.77;;
17365;SDS011;8800;50.118;9.900;2024-01-15T04:21:50;27.13;;;8.30;;
17365;SDS011;8800;50.118;9.900;2024-01-15T04:24:18;16.13;;;7.30;;
17365;SDS011;8800;50.118;9.900;2024-01-15T04:26:44;19.73;;;8.13;;
17365;SDS011;8800;50.118;9.900;2024-01-15T04:29:11;27.40;;;8.48;;
17365;SDS011;8800;50.118;9.900;2024-01-15T04:31:37;24.02;;;7.32;;
17365;SDS011;8800;50.118;9.900;2024-01-15T04:34:04;29.40;;;8.77;;
17365;SDS011;8800;50.118;9.900;2024-01-15T04:36:30;26.45;;;8.18;;
17365;SDS011;8800;50.118;9.900;2024-01-15T04:38:57;25.50;;;8.88;;
17365;SDS011;8800;50.118;9.900;2024-01-15T04:41:25;19.95;;;6.82;;
17365;SDS011;8800;50.118;9.900;2024-01-15T04:43:51;25.25;;;8.48;;
17365;SDS011;8800;50.118;9.900;2024-01-15T04:46:18;25.55;;;8.00;;
17365;SDS011;8800;50.118;9.900;2024-01-15T04:48:45;26.85;;;8.60;;
17365;SDS011;8800;50.118;9.900;2024-01-15T04:51:11;27.63;;;8.98;;
17365;SDS011;8800;50.118;9.900;2024-01-15T04:53:37;28.25;;;8.95;;
17365;SDS011;8800;50.118;9.900;2024-01-15T04:56:04;25.10;;;7.32;;
17365;SDS011;8800;50.118;9.900;2024-01-15T04:58:32;29.58;;;10.82;;
17365;SDS011;8800;50.118;9.900;2024-01-15T05:00:58;28.38;;;9.32;;
17365;SDS011;8800;50.118;9.900;2024-01-15T05:03:25;31.80;;;10.38;;
17365;SDS011;8800;50.118;9.900;2024-01-15T05:05:51;29.85;;;9.18;;
17365;SDS011;8800;50.118;9.900;2024-01-15T05:08:18;23.42;;;7.93;;
17365;SDS011;8800;50.118;9.900;2024-01-15T05:10:45;32.47;;;9.70;;
17365;SDS011;8800;50.118;9.900;2024-01-15T05:13:11;34.00;;;10.40;;
17365;SDS011;8800;50.118;9.900;2024-01-15T05:15:39;29.35;;;9.73;;
17365;SDS011;8800;50.118;9.900;2024-01-15T05:18:06;32.63;;;9.70;;
17365;SDS011;8800;50.118;9.900;2024-01-15T05:20:32;32.38;;;10.30;;
17365;SDS011;8800;50.118;9.900;2024-01-15T05:22:59;34.45;;;10.60;;
17365;SDS011;8800;50.118;9.900;2024-01-15T05:25:25;34.60;;;10.82;;
17365;SDS011;8800;50.118;9.900;2024-01-15T05:27:52;30.30;;;10.68;;
17365;SDS011;8800;50.118;9.900;2024-01-15T05:30:18;36.80;;;11.35;;
17365;SDS011;8800;50.118;9.900;2024-01-15T05:32:46;31.60;;;12.03;;
17365;SDS011;8800;50.118;9.900;2024-01-15T05:35:13;30.95;;;11.48;;
17365;SDS011;8800;50.118;9.900;2024-01-15T05:37:41;30.63;;;11.60;;
17365;SDS011;8800;50.118;9.900;2024-01-15T05:40:08;32.88;;;10.73;;
17365;SDS011;8800;50.118;9.900;2024-01-15T05:42:34;31.25;;;9.88;;
17365;SDS011;8800;50.118;9.900;2024-01-15T05:45:01;30.05;;;10.13;;
17365;SDS011;8800;50.118;9.900;2024-01-15T05:47:29;31.60;;;9.23;;
17365;SDS011;8800;50.118;9.900;2024-01-15T05:49:57;30.30;;;10.40;;
17365;SDS011;8800;50.118;9.900;2024-01-15T05:52:23;30.33;;;10.40;;
17365;SDS011;8800;50.118;9.900;2024-01-15T05:54:52;36.65;;;10.63;;
17365;SDS011;8800;50.118;9.900;2024-01-15T05:57:19;29.33;;;10.05;;
17365;SDS011;8800;50.118;9.900;2024-01-15T05:59:45;29.23;;;10.35;;
17365;SDS011;8800;50.118;9.900;2024-01-15T06:02:12;35.08;;;11.90;;
17365;SDS011;8800;50.118;9.900;2024-01-15T06:04:39;29.13;;;10.80;;
17365;SDS011;8800;50.118;9.900;2024-01-15T06:07:06;27.25;;;9.95;;
17365;SDS011;8800;50.118;9.900;2024-01-15T06:09:33;29.58;;;9.68;;
17365;SDS011;8800;50.118;9.900;2024-01-15T06:11:59;32.97;;;10.98;;
17365;SDS011;8800;50.118;9.900;2024-01-15T06:14:26;33.78;;;10.38;;
17365;SDS011;8800;50.118;9.900;2024-01-15T06:16:52;28.15;;;10.10;;
17365;SDS011;8800;50.118;9.900;2024-01-15T06:19:19;29.48;;;9.32;;
17365;SDS011;8800;50.118;9.900;2024-01-15T06:21:45;37.92;;;12.30;;
17365;SDS011;8800;50.118;9.900;2024-01-15T06:24:13;29.48;;;11.18;;
17365;SDS011;8800;50.118;9.900;2024-01-15T06:26:41;29.85;;;10.25;;
17365;SDS011;8800;50.118;9.900;2024-01-15T06:29:07;38.90;;;12.48;;
17365;SDS011;8800;50.118;9.900;2024-01-15T06:31:33;28.42;;;10.80;;
17365;SDS011;8800;50.118;9.900;2024-01-15T06:34:00;25.98;;;9.10;;
17365;SDS011;8800;50.118;9.900;2024-01-15T06:36:26;27.15;;;9.73;;
17365;SDS011;8800;50.118;9.900;2024-01-15T06:38:53;32.47;;;11.35;;
17365;SDS011;8800;50.118;9.900;2024-01-15T06:41:21;28.33;;;10.25;;
17365;SDS011;8800;50.118;9.900;2024-01-15T06:43:47;24.05;;;9.60;;
17365;SDS011;8800;50.118;9.900;2024-01-15T06:46:19;28.88;;;9.68;;
17365;SDS011;8800;50.118;9.900;2024-01-15T06:48:45;30.05;;;10.68;;
17365;SDS011;8800;50.118;9.900;2024-01-15T06:51:12;31.75;;;10.68;;
17365;SDS011;8800;50.118;9.900;2024-01-15T06:53:38;24.67;;;10.30;;
17365;SDS011;8800;50.118;9.900;2024-01-15T06:56:05;28.02;;;10.15;;
17365;SDS011;8800;50.118;9.900;2024-01-15T06:58:33;29.52;;;9.93;;
17365;SDS011;8800;50.118;9.900;2024-01-15T07:00:59;28.73;;;9.35;;
17365;SDS011;8800;50.118;9.900;2024-01-15T07:03:27;31.88;;;10.07;;
17365;SDS011;8800;50.118;9.900;2024-01-15T07:05:53;38.15;;;11.48;;
17365;SDS011;8800;50.118;9.900;2024-01-15T07:08:20;29.70;;;10.02;;
17365;SDS011;8800;50.118;9.900;2024-01-15T07:10:46;23.85;;;8.43;;
17365;SDS011;8800;50.118;9.900;2024-01-15T07:13:13;27.25;;;9.75;;
17365;SDS011;8800;50.118;9.900;2024-01-15T07:15:41;23.55;;;8.93;;
17365;SDS011;8800;50.118;9.900;2024-01-15T07:18:07;23.75;;;9.18;;
17365;SDS011;8800;50.118;9.900;2024-01-15T07:20:36;27.73;;;9.10;;
17365;SDS011;8800;50.118;9.900;2024-01-15T07:23:03;32.55;;;10.45;;
17365;SDS011;8800;50.118;9.900;2024-01-15T07:25:30;26.92;;;9.00;;
17365;SDS011;8800;50.118;9.900;2024-01-15T07:27:56;31.75;;;9.13;;
17365;SDS011;8800;50.118;9.900;2024-01-15T07:30:22;29.58;;;9.40;;
17365;SDS011;8800;50.118;9.900;2024-01-15T07:32:50;27.02;;;9.65;;
17365;SDS011;8800;50.118;9.900;2024-01-15T07:35:18;24.65;;;9.27;;
17365;SDS011;8800;50.118;9.900;2024-01-15T07:37:44;23.38;;;9.20;;
17365;SDS011;8800;50.118;9.900;2024-01-15T07:40:11;24.20;;;8.13;;
17365;SDS011;8800;50.118;9.900;2024-01-15T07:42:37;21.92;;;8.35;;
17365;SDS011;8800;50.118;9.900;2024-01-15T07:45:04;23.50;;;8.10;;
17365;SDS011;8800;50.118;9.900;2024-01-15T07:47:31;24.65;;;8.05;;
17365;SDS011;8800;50.118;9.900;2024-01-15T07:49:59;25.33;;;8.65;;
17365;SDS011;8800;50.118;9.900;2024-01-15T07:52:25;24.63;;;9.65;;
17365;SDS011;8800;50.118;9.900;2024-01-15T07:54:52;30.98;;;11.25;;
17365;SDS011;8800;50.118;9.900;2024-01-15T07:57:19;35.20;;;11.48;;
17365;SDS011;8800;50.118;9.900;2024-01-15T07:59:45;33.25;;;10.23;;
17365;SDS011;8800;50.118;9.900;2024-01-15T08:02:12;27.17;;;8.75;;
17365;SDS011;8800;50.118;9.900;2024-01-15T08:04:38;24.85;;;8.45;;
17365;SDS011;8800;50.118;9.900;2024-01-15T08:07:06;22.35;;;7.57;;
17365;SDS011;8800;50.118;9.900;2024-01-15T08:09:33;25.25;;;9.23;;
17365;SDS011;8800;50.118;9.900;2024-01-15T08:11:59;27.42;;;8.73;;
17365;SDS011;8800;50.118;9.900;2024-01-15T08:14:26;30.35;;;10.00;;
17365;SDS011;8800;50.118;9.900;2024-01-15T08:16:52;35.10;;;10.80;;
17365;SDS011;8800;50.118;9.900;2024-01-15T08:19:19;29.05;;;10.48;;
17365;SDS011;8800;50.118;9.900;2024-01-15T08:21:46;26.75;;;9.35;;
17365;SDS011;8800;50.118;9.900;2024-01-15T08:24:14;32.63;;;12.23;;
17365;SDS011;8800;50.118;9.900;2024-01-15T08:26:40;29.40;;;10.43;;
17365;SDS011;8800;50.118;9.900;2024-01-15T08:29:07;22.92;;;8.20;;
17365;SDS011;8800;50.118;9.900;2024-01-15T08:31:33;15.27;;;6.35;;
17365;SDS011;8800;50.118;9.900;2024-01-15T08:34:00;22.42;;;9.50;;
17365;SDS011;8800;50.118;9.900;2024-01-15T08:36:27;24.30;;;8.40;;
17365;SDS011;8800;50.118;9.900;2024-01-15T08:38:54;23.15;;;9.48;;
17365;SDS011;8800;50.118;9.900;2024-01-15T08:41:22;28.77;;;9.23;;
17365;SDS011;8800;50.118;9.900;2024-01-15T08:43:49;27.33;;;9.38;;
17365;SDS011;8800;50.118;9.900;2024-01-15T08:46:16;28.70;;;10.65;;
17365;SDS011;8800;50.118;9.900;2024-01-15T08:48:43;23.02;;;9.25;;
17365;SDS011;8800;50.118;9.900;2024-01-15T08:51:09;23.63;;;9.80;;
17365;SDS011;8800;50.118;9.900;2024-01-15T08:53:36;21.58;;;9.02;;
17365;SDS011;8800;50.118;9.900;2024-01-15T08:56:02;23.10;;;9.15;;
17365;SDS011;8800;50.118;9.900;2024-01-15T08:58:30;25.42;;;8.95;;
17365;SDS011;8800;50.118;9.900;2024-01-15T09:00:57;26.02;;;8.40;;
17365;SDS011;8800;50.118;9.900;2024-01-15T09:03:24;26.90;;;9.63;;
17365;SDS011;8800;50.118;9.900;2024-01-15T09:05:52;40.05;;;14.95;;
17365;SDS011;8800;50.118;9.900;2024-01-15T09:08:18;28.83;;;9.75;;
17365;SDS011;8800;50.118;9.900;2024-01-15T09:10:44;20.95;;;8.55;;
17365;SDS011;8800;50.118;9.900;2024-01-15T09:13:11;24.90;;;9.13;;
17365;SDS011;8800;50.118;9.900;2024-01-15T09:15:39;22.98;;;8.60;;
17365;SDS011;8800;50.118;9.900;2024-01-15T09:18:05;22.10;;;8.73;;
17365;SDS011;8800;50.118;9.900;2024-01-15T09:20:32;19.63;;;7.88;;
17365;SDS011;8800;50.118;9.900;2024-01-15T09:22:58;25.83;;;10.13;;
17365;SDS011;8800;50.118;9.900;2024-01-15T09:25:25;23.55;;;9.77;;
17365;SDS011;8800;50.118;9.900;2024-01-15T09:27:52;22.27;;;7.60;;
17365;SDS011;8800;50.118;9.900;2024-01-15T09:30:18;18.45;;;7.75;;
17365;SDS011;8800;50.118;9.900;2024-01-15T09:32:46;24.33;;;8.93;;
17365;SDS011;8800;50.118;9.900;2024-01-15T09:35:13;24.65;;;9.32;;
17365;SDS011;8800;50.118;9.900;2024-01-15T09:37:41;22.15;;;8.38;;
17365;SDS011;8800;50.118;9.900;2024-01-15T09:40:08;21.27;;;8.95;;
17365;SDS011;8800;50.118;9.900;2024-01-15T09:42:38;23.67;;;10.05;;
17365;SDS011;8800;50.118;9.900;2024-01-15T09:45:05;28.88;;;9.68;;
17365;SDS011;8800;50.118;9.900;2024-01-15T09:47:32;24.35;;;9.57;;
17365;SDS011;8800;50.118;9.900;2024-01-15T09:50:00;24.83;;;10.50;;
17365;SDS011;8800;50.118;9.900;2024-01-15T09:52:28;26.42;;;9.57;;
17365;SDS011;8800;50.118;9.900;2024-01-15T09:54:56;22.40;;;7.80;;
17365;SDS011;8800;50.118;9.900;2024-01-15T09:57:22;21.63;;;8.68;;
17365;SDS011;8800;50.118;9.900;2024-01-15T09:59:50;25.00;;;9.43;;
17365;SDS011;8800;50.118;9.900;2024-01-15T10:02:18;23.58;;;9.90;;
17365;SDS011;8800;50.118;9.900;2024-01-15T10:04:44;26.77;;;10.05;;
17365;SDS011;8800;50.118;9.900;2024-01-15T10:07:13;27.10;;;9.23;;
17365;SDS011;8800;50.118;9.900;2024-01-15T10:09:41;27.88;;;9.35;;
17365;SDS011;8800;50.118;9.900;2024-01-15T10:12:07;20.70;;;8.45;;
17365;SDS011;8800;50.118;9.900;2024-01-15T10:14:34;21.70;;;8.48;;
17365;SDS011;8800;50.118;9.900;2024-01-15T10:17:03;23.75;;;8.70;;
17365;SDS011;8800;50.118;9.900;2024-01-15T10:19:37;26.27;;;10.05;;
17365;SDS011;8800;50.118;9.900;2024-01-15T10:22:03;25.08;;;9.00;;
17365;SDS011;8800;50.118;9.900;2024-01-15T10:24:31;25.20;;;10.40;;
17365;SDS011;8800;50.118;9.900;2024-01-15T10:27:04;27.92;;;9.73;;
17365;SDS011;8800;50.118;9.900;2024-01-15T10:29:31;24.85;;;9.05;;
17365;SDS011;8800;50.118;9.900;2024-01-15T10:31:58;20.35;;;7.97;;
17365;SDS011;8800;50.118;9.900;2024-01-15T10:34:25;20.83;;;8.15;;
17365;SDS011;8800;50.118;9.900;2024-01-15T10:36:51;22.77;;;9.40;;
17365;SDS011;8800;50.118;9.900;2024-01-15T10:39:20;26.10;;;9.52;;
17365;SDS011;8800;50.118;9.900;2024-01-15T10:41:48;25.40;;;9.55;;
17365;SDS011;8800;50.118;9.900;2024-01-15T10:44:15;24.60;;;9.05;;
17365;SDS011;8800;50.118;9.900;2024-01-15T10:46:42;22.42;;;8.43;;
17365;SDS011;8800;50.118;9.900;2024-01-15T10:49:10;26.90;;;8.50;;
17365;SDS011;8800;50.118;9.900;2024-01-15T10:51:37;23.80;;;9.20;;
17365;SDS011;8800;50.118;9.900;2024-01-15T10:54:03;26.67;;;8.65;;
17365;SDS011;8800;50.118;9.900;2024-01-15T10:56:32;21.33;;;8.57;;
17365;SDS011;8800;50.118;9.900;2024-01-15T10:59:00;21.83;;;9.00;;
17365;SDS011;8800;50.118;9.900;2024-01-15T11:01:28;22.63;;;8.65;;
17365;SDS011;8800;50.118;9.900;2024-01-15T11:03:54;23.17;;;9.40;;
17365;SDS011;8800;50.118;9.900;2024-01-15T11:06:23;20.25;;;7.80;;
17365;SDS011;8800;50.118;9.900;2024-01-15T11:08:50;23.95;;;9.10;;
17365;SDS011;8800;50.118;9.900;2024-01-15T11:11:17;22.40;;;8.73;;
17365;SDS011;8800;50.118;9.900;2024-01-15T11:13:45;18.90;;;8.23;;
17365;SDS011;8800;50.118;9.900;2024-01-15T11:16:16;22.40;;;8.60;;
17365;SDS011;8800;50.118;9.900;2024-01-15T11:18:43;24.85;;;9.30;;
17365;SDS011;8800;50.118;9.900;2024-01-15T11:21:22;21.08;;;8.90;;
17365;SDS011;8800;50.118;9.900;2024-01-15T11:23:50;20.90;;;7.63;;
17365;SDS011;8800;50.118;9.900;2024-01-15T11:29:02;20.85;;;7.80;;
17365;SDS011;8800;50.118;9.900;2024-01-15T11:34:17;19.20;;;7.68;;
17365;SDS011;8800;50.118;9.900;2024-01-15T11:37:02;18.20;;;7.32;;
17365;SDS011;8800;50.118;9.900;2024-01-15T11:39:39;20.27;;;8.05;;
17365;SDS011;8800;50.118;9.900;2024-01-15T11:42:05;18.83;;;7.50;;
17365;SDS011;8800;50.118;9.900;2024-01-15T11:44:32;18.38;;;7.63;;
17365;SDS011;8800;50.118;9.900;2024-01-15T11:47:14;18.85;;;6.97;;
17365;SDS011;8800;50.118;9.900;2024-01-15T11:49:56;17.40;;;6.93;;
17365;SDS011;8800;50.118;9.900;2024-01-15T11:52:24;17.40;;;7.18;;
17365;SDS011;8800;50.118;9.900;2024-01-15T11:54:53;17.35;;;6.85;;
17365;SDS011;8800;50.118;9.900;2024-01-15T11:57:25;15.45;;;7.13;;
17365;SDS011;8800;50.118;9.900;2024-01-15T11:59:52;18.85;;;6.88;;
17365;SDS011;8800;50.118;9.900;2024-01-15T12:02:20;18.58;;;6.47;;
17365;SDS011;8800;50.118;9.900;2024-01-15T12:04:47;16.33;;;6.93;;
17365;SDS011;8800;50.118;9.900;2024-01-15T12:07:13;18.02;;;7.40;;
17365;SDS011;8800;50.118;9.900;2024-01-15T12:09:42;16.83;;;6.78;;
17365;SDS011;8800;50.118;9.900;2024-01-15T12:12:09;13.38;;;5.93;;
17365;SDS011;8800;50.118;9.900;2024-01-15T12:14:39;15.38;;;6.85;;
17365;SDS011;8800;50.118;9.900;2024-01-15T12:17:06;13.02;;;5.80;;
17365;SDS011;8800;50.118;9.900;2024-01-15T12:19:34;19.45;;;7.75;;
17365;SDS011;8800;50.118;9.900;2024-01-15T12:22:01;15.07;;;6.75;;
17365;SDS011;8800;50.118;9.900;2024-01-15T12:24:27;14.30;;;5.63;;
17365;SDS011;8800;50.118;9.900;2024-01-15T12:26:54;13.90;;;6.32;;
17365;SDS011;8800;50.118;9.900;2024-01-15T12:29:20;15.82;;;6.57;;
17365;SDS011;8800;50.118;9.900;2024-01-15T12:31:47;15.25;;;6.97;;
17365;SDS011;8800;50.118;9.900;2024-01-15T12:34:14;13.50;;;6.63;;
17365;SDS011;8800;50.118;9.900;2024-01-15T12:36:42;12.20;;;6.00;;
17365;SDS011;8800;50.118;9.900;2024-01-15T12:39:11;15.93;;;7.30;;
17365;SDS011;8800;50.118;9.900;2024-01-15T12:41:37;14.38;;;6.85;;
17365;SDS011;8800;50.118;9.900;2024-01-15T12:44:04;16.15;;;7.85;;
17365;SDS011;8800;50.118;9.900;2024-01-15T12:46:31;15.25;;;7.00;;
17365;SDS011;8800;50.118;9.900;2024-01-15T12:48:57;15.38;;;6.63;;
17365;SDS011;8800;50.118;9.900;2024-01-15T12:51:24;18.27;;;7.80;;
17365;SDS011;8800;50.118;9.900;2024-01-15T12:53:52;14.60;;;6.28;;
17365;SDS011;8800;50.118;9.900;2024-01-15T12:56:18;16.23;;;6.90;;
17365;SDS011;8800;50.118;9.900;2024-01-15T12:58:45;16.70;;;7.38;;
17365;SDS011;8800;50.118;9.900;2024-01-15T13:01:12;14.95;;;6.13;;
17365;SDS011;8800;50.118;9.900;2024-01-15T13:03:38;18.80;;;7.97;;
17365;SDS011;8800;50.118;9.900;2024-01-15T13:06:05;14.98;;;6.80;;
17365;SDS011;8800;50.118;9.900;2024-01-15T13:08:31;14.38;;;5.38;;
17365;SDS011;8800;50.118;9.900;2024-01-15T13:10:59;16.65;;;7.05;;
17365;SDS011;8800;50.118;9.900;2024-01-15T13:13:26;17.67;;;6.88;;
17365;SDS011;8800;50.118;9.900;2024-01-15T13:15:52;14.65;;;6.35;;
17365;SDS011;8800;50.118;9.900;2024-01-15T13:18:18;12.73;;;5.10;;
17365;SDS011;8800;50.118;9.900;2024-01-15T13:20:45;19.58;;;7.40;;
17365;SDS011;8800;50.118;9.900;2024-01-15T13:23:12;19.25;;;7.05;;
17365;SDS011;8800;50.118;9.900;2024-01-15T13:25:38;15.38;;;6.47;;
17365;SDS011;8800;50.118;9.900;2024-01-15T13:28:06;18.48;;;6.82;;
17365;SDS011;8800;50.118;9.900;2024-01-15T13:30:33;17.20;;;6.57;;
17365;SDS011;8800;50.118;9.900;2024-01-15T13:32:59;12.80;;;5.32;;
17365;SDS011;8800;50.118;9.900;2024-01-15T13:35:29;18.13;;;7.43;;
17365;SDS011;8800;50.118;9.900;2024-01-15T13:37:55;19.25;;;8.23;;
17365;SDS011;8800;50.118;9.900;2024-01-15T13:40:22;22.98;;;8.50;;
17365;SDS011;8800;50.118;9.900;2024-01-15T13:42:48;16.48;;;8.25;;
17365;SDS011;8800;50.118;9.900;2024-01-15T13:45:18;18.70;;;7.80;;
17365;SDS011;8800;50.118;9.900;2024-01-15T13:47:45;16.27;;;7.20;;
17365;SDS011;8800;50.118;9.900;2024-01-15T13:50:12;16.58;;;7.25;;
17365;SDS011;8800;50.118;9.900;2024-01-15T13:52:38;19.23;;;8.05;;
17365;SDS011;8800;50.118;9.900;2024-01-15T13:55:05;20.65;;;8.40;;
17365;SDS011;8800;50.118;9.900;2024-01-15T13:57:34;15.57;;;6.75;;
17365;SDS011;8800;50.118;9.900;2024-01-15T14:00:00;20.70;;;8.65;;
17365;SDS011;8800;50.118;9.900;2024-01-15T14:02:28;17.42;;;7.70;;
17365;SDS011;8800;50.118;9.900;2024-01-15T14:04:55;17.83;;;7.75;;
17365;SDS011;8800;50.118;9.900;2024-01-15T14:07:21;20.35;;;8.00;;
17365;SDS011;8800;50.118;9.900;2024-01-15T14:09:48;21.65;;;8.15;;
17365;SDS011;8800;50.118;9.900;2024-01-15T14:12:14;15.10;;;6.97;;
17365;SDS011;8800;50.118;9.900;2024-01-15T14:14:41;18.83;;;7.28;;
17365;SDS011;8800;50.118;9.900;2024-01-15T14:17:07;25.63;;;10.13;;
17365;SDS011;8800;50.118;9.900;2024-01-15T14:19:35;24.88;;;9.25;;
17365;SDS011;8800;50.118;9.900;2024-01-15T14:22:02;24.80;;;10.43;;
17365;SDS011;8800;50.118;9.900;2024-01-15T14:24:28;15.82;;;7.28;;
17365;SDS011;8800;50.118;9.900;2024-01-15T14:26:55;15.77;;;7.35;;
17365;SDS011;8800;50.118;9.900;2024-01-15T14:29:22;18.98;;;9.27;;
17365;SDS011;8800;50.118;9.900;2024-01-15T14:31:51;17.63;;;7.55;;
17365;SDS011;8800;50.118;9.900;2024-01-15T14:34:17;14.88;;;6.93;;
17365;SDS011;8800;50.118;9.900;2024-01-15T14:36:45;17.30;;;6.50;;
17365;SDS011;8800;50.118;9.900;2024-01-15T14:39:12;14.65;;;6.28;;
17365;SDS011;8800;50.118;9.900;2024-01-15T14:41:38;17.70;;;7.22;;
17365;SDS011;8800;50.118;9.900;2024-01-15T14:44:05;16.25;;;7.68;;
17365;SDS011;8800;50.118;9.900;2024-01-15T14:46:31;14.65;;;6.78;;
17365;SDS011;8800;50.118;9.900;2024-01-15T14:48:58;16.48;;;7.43;;